createdAt,value
2023-04-08T00:00:58.242Z,17.07
2023-04-08T00:04:00.918Z,19.20
2023-04-08T00:07:03.619Z,15.47
2023-04-08T00:10:07.626Z,19.73
2023-04-08T00:13:10.378Z,18.17
2023-04-08T00:16:14.534Z,18.97
2023-04-08T00:19:17.175Z,20.07
2023-04-08T00:22:20.018Z,17.47
2023-04-08T00:25:24.797Z,18.33
2023-04-08T00:28:28.063Z,20.23
2023-04-08T00:31:32.051Z,21.67
2023-04-08T00:34:34.643Z,18.50
2023-04-08T00:37:37.256Z,22.10
2023-04-08T00:40:39.875Z,20.03
2023-04-08T00:43:42.474Z,16.40
2023-04-08T00:46:47.383Z,17.37
2023-04-08T00:49:50.448Z,18.53
2023-04-08T00:52:53.085Z,14.23
2023-04-08T00:55:55.705Z,15.80
2023-04-08T00:58:58.680Z,13.83
2023-04-08T01:02:13.592Z,17.97
2023-04-08T01:05:22.779Z,16.00
2023-04-08T01:08:29.755Z,12.93
2023-04-08T01:11:35.698Z,15.40
2023-04-08T01:14:43.933Z,13.93
2023-04-08T01:17:49.178Z,16.07
2023-04-08T01:20:53.148Z,14.73
2023-04-08T01:24:02.289Z,13.20
2023-04-08T01:27:07.895Z,13.00
2023-04-08T01:30:11.645Z,14.80
2023-04-08T01:33:16.315Z,15.10
2023-04-08T01:36:21.151Z,15.93
2023-04-08T01:39:25.059Z,17.03
2023-04-08T01:42:30.762Z,16.77
2023-04-08T01:45:33.342Z,15.23
2023-04-08T01:48:37.122Z,17.60
2023-04-08T01:51:40.474Z,14.63
2023-04-08T01:54:43.115Z,15.03
2023-04-08T01:57:50.841Z,14.37
2023-04-08T02:00:55.830Z,13.87
2023-04-08T02:04:00.411Z,15.37
2023-04-08T02:07:03.716Z,14.67
2023-04-08T02:10:07.500Z,16.03
2023-04-08T02:13:11.467Z,12.97
2023-04-08T02:16:19.584Z,14.07
2023-04-08T02:19:31.557Z,14.17
2023-04-08T02:22:41.824Z,13.47
2023-04-08T02:25:46.337Z,18.50
2023-04-08T02:28:51.074Z,14.57
2023-04-08T02:31:54.954Z,15.07
2023-04-08T02:34:58.905Z,17.40
2023-04-08T02:38:01.617Z,12.00
2023-04-08T02:41:04.393Z,10.07
2023-04-08T02:44:08.334Z,14.00
2023-04-08T02:47:10.957Z,11.83
2023-04-08T02:50:13.553Z,13.17
2023-04-08T02:53:16.168Z,13.90
2023-04-08T02:56:18.744Z,14.90
2023-04-08T02:59:22.722Z,12.73
2023-04-08T03:02:25.446Z,12.33
2023-04-08T03:05:28.206Z,14.50
2023-04-08T03:08:30.794Z,15.57
2023-04-08T03:11:33.415Z,13.27
2023-04-08T03:14:37.358Z,15.57
2023-04-08T03:17:40.042Z,17.67
2023-04-08T03:20:42.649Z,15.03
2023-04-08T03:23:45.635Z,16.97
2023-04-08T03:26:48.283Z,19.20
2023-04-08T03:29:53.010Z,19.60
2023-04-08T03:32:56.075Z,20.73
2023-04-08T03:35:58.817Z,17.43
2023-04-08T03:39:03.654Z,21.20
2023-04-08T03:42:06.248Z,19.20
2023-04-08T03:45:10.754Z,22.27
2023-04-08T03:48:13.347Z,21.27
2023-04-08T03:51:16.009Z,20.53
2023-04-08T03:54:18.687Z,21.57
2023-04-08T03:57:21.280Z,22.00
2023-04-08T04:00:25.457Z,24.63
2023-04-08T04:03:28.189Z,23.33
2023-04-08T04:06:31.107Z,21.47
2023-04-08T04:09:33.702Z,23.50
2023-04-08T04:12:36.307Z,21.50
2023-04-08T04:15:41.206Z,22.33
2023-04-08T04:18:43.913Z,21.93
2023-04-08T04:21:46.535Z,25.00
2023-04-08T04:24:49.506Z,21.93
2023-04-08T04:27:52.076Z,23.03
2023-04-08T04:30:56.728Z,20.93
2023-04-08T04:34:00.756Z,27.40
2023-04-08T04:37:03.503Z,23.03
2023-04-08T04:40:07.563Z,24.83
2023-04-08T04:43:10.299Z,21.30
2023-04-08T04:46:14.293Z,22.57
2023-04-08T04:49:16.906Z,22.47
2023-04-08T04:52:19.546Z,23.93
2023-04-08T04:55:23.349Z,24.90
2023-04-08T04:58:26.067Z,24.00
2023-04-08T05:01:30.056Z,61.17
2023-04-08T05:04:32.708Z,30.03
2023-04-08T05:07:36.932Z,20.13
2023-04-08T05:10:42.305Z,34.37
2023-04-08T05:13:44.966Z,25.43
2023-04-08T05:16:48.898Z,26.13
2023-04-08T05:19:51.965Z,25.73
2023-04-08T05:22:54.547Z,22.23
2023-04-08T05:25:57.178Z,25.90
2023-04-08T05:28:59.866Z,23.50
2023-04-08T05:32:03.835Z,25.53
2023-04-08T05:35:07.286Z,21.93
2023-04-08T05:38:09.922Z,27.60
2023-04-08T05:41:12.769Z,24.00
2023-04-08T05:44:15.494Z,25.97
2023-04-08T05:47:19.417Z,21.60
2023-04-08T05:50:22.012Z,22.00
2023-04-08T05:53:24.960Z,21.23
2023-04-08T05:56:27.564Z,26.73
2023-04-08T05:59:30.239Z,18.97
2023-04-08T06:02:34.261Z,34.63
2023-04-08T06:05:36.953Z,21.43
2023-04-08T06:08:39.528Z,17.70
2023-04-08T06:11:42.108Z,19.33
2023-04-08T06:14:44.764Z,18.90
2023-04-08T06:17:48.715Z,16.80
2023-04-08T06:20:51.545Z,17.47
2023-04-08T06:23:54.187Z,16.10
2023-04-08T06:26:57.168Z,20.83
2023-04-08T06:29:59.784Z,19.87
2023-04-08T06:33:03.785Z,18.93
2023-04-08T06:36:07.959Z,19.23
2023-04-08T06:39:10.619Z,22.03
2023-04-08T06:42:13.221Z,26.23
2023-04-08T06:45:15.820Z,39.53
2023-04-08T06:48:19.766Z,21.80
2023-04-08T06:51:22.386Z,30.07
2023-04-08T06:54:24.998Z,32.37
2023-04-08T06:57:27.599Z,26.20
2023-04-08T07:00:30.513Z,24.47
2023-04-08T07:03:34.617Z,21.00
2023-04-08T07:06:37.280Z,19.40
2023-04-08T07:09:41.358Z,25.27
2023-04-08T07:12:43.967Z,21.63
2023-04-08T07:15:46.755Z,18.20
2023-04-08T07:18:51.913Z,19.63
2023-04-08T07:21:54.820Z,23.13
2023-04-08T07:24:57.392Z,20.87
2023-04-08T07:27:59.962Z,25.40
2023-04-08T07:31:13.971Z,23.17
2023-04-08T07:34:17.958Z,26.77
2023-04-08T07:37:20.704Z,24.97
2023-04-08T07:40:23.274Z,23.70
2023-04-08T07:43:25.877Z,21.83
2023-04-08T07:46:28.467Z,20.73
2023-04-08T07:49:32.459Z,24.47
2023-04-08T07:52:35.129Z,18.50
2023-04-08T07:55:39.239Z,20.23
2023-04-08T07:58:42.207Z,20.73
2023-04-08T08:01:44.908Z,20.77
2023-04-08T08:04:48.948Z,36.63
2023-04-08T08:07:51.568Z,32.77
2023-04-08T08:10:54.144Z,28.40
2023-04-08T08:13:56.885Z,22.57
2023-04-08T08:16:59.596Z,22.93
2023-04-08T08:20:04.871Z,19.83
2023-04-08T08:23:07.450Z,21.00
2023-04-08T08:26:11.134Z,23.97
2023-04-08T08:29:13.783Z,23.00
2023-04-08T08:32:16.426Z,23.37
2023-04-08T08:35:20.402Z,21.07
2023-04-08T08:38:23.018Z,19.13
2023-04-08T08:41:25.652Z,20.23
2023-04-08T08:44:28.404Z,17.23
2023-04-08T08:47:31.982Z,15.50
2023-04-08T08:50:36.324Z,16.30
2023-04-08T08:53:39.188Z,16.63
2023-04-08T08:56:43.373Z,17.47
2023-04-08T08:59:47.289Z,18.37
2023-04-08T09:02:50.111Z,18.73
2023-04-08T09:05:56.570Z,20.30
2023-04-08T09:08:59.165Z,19.63
2023-04-08T09:12:04.891Z,23.47
2023-04-08T09:15:09.370Z,22.83
2023-04-08T09:18:22.825Z,20.87
2023-04-08T09:21:27.382Z,21.60
2023-04-08T09:24:31.908Z,18.53
2023-04-08T09:27:35.919Z,25.17
2023-04-08T09:30:38.751Z,21.40
2023-04-08T09:33:41.367Z,20.30
2023-04-08T09:36:45.714Z,22.50
2023-04-08T09:39:48.784Z,20.80
2023-04-08T09:42:56.184Z,23.33
2023-04-08T09:46:02.527Z,24.93
2023-04-08T09:49:08.252Z,23.63
2023-04-08T09:52:17.938Z,22.33
2023-04-08T09:55:23.584Z,24.80
2023-04-08T09:58:29.693Z,19.43
2023-04-08T10:01:39.152Z,20.53
2023-04-08T10:04:45.354Z,23.53
2023-04-08T10:07:51.354Z,19.63
2023-04-08T10:10:56.254Z,24.53
2023-04-08T10:13:58.918Z,19.90
2023-04-08T10:17:27.427Z,25.70
2023-04-08T10:20:45.842Z,29.57
2023-04-08T10:23:59.289Z,21.57
2023-04-08T10:27:04.257Z,17.10
2023-04-08T10:30:40.116Z,17.63
2023-04-08T10:33:42.718Z,19.67
2023-04-08T10:36:45.335Z,23.00
2023-04-08T10:39:52.933Z,21.37
2023-04-08T10:42:55.920Z,18.87
2023-04-08T10:45:58.513Z,20.00
2023-04-08T10:49:01.844Z,19.83
2023-04-08T10:52:08.358Z,17.80
2023-04-08T10:55:12.854Z,19.00
2023-04-08T10:58:15.540Z,22.53
2023-04-08T11:01:18.421Z,21.13
2023-04-08T11:04:23.570Z,22.80
2023-04-08T11:07:27.060Z,25.23
2023-04-08T11:10:31.841Z,21.47
2023-04-08T11:13:34.517Z,21.00
2023-04-08T11:16:39.088Z,22.83
2023-04-08T11:19:41.904Z,21.67
2023-04-08T11:22:45.900Z,22.07
2023-04-08T11:25:50.072Z,21.73
2023-04-08T11:28:53.350Z,22.20
2023-04-08T11:31:56.229Z,23.07
2023-04-08T11:35:01.190Z,23.97
2023-04-08T11:38:06.108Z,24.07
2023-04-08T11:41:11.511Z,26.53
2023-04-08T11:44:14.218Z,27.10
2023-04-08T11:47:16.888Z,25.67
2023-04-08T11:50:25.860Z,22.77
2023-04-08T11:53:28.567Z,25.17
2023-04-08T11:56:33.615Z,25.63
2023-04-08T11:59:36.256Z,22.27
2023-04-08T12:02:38.968Z,27.17
2023-04-08T12:05:42.489Z,25.10
2023-04-08T12:08:45.150Z,24.97
2023-04-08T12:11:49.288Z,24.57
2023-04-08T12:14:51.891Z,22.83
2023-04-08T12:17:54.489Z,21.60
2023-04-08T12:20:57.338Z,21.97
2023-04-08T12:23:59.920Z,26.33
2023-04-08T12:27:04.973Z,23.47
2023-04-08T12:30:08.815Z,22.43
2023-04-08T12:33:11.409Z,22.60
2023-04-08T12:36:14.075Z,21.00
2023-04-08T12:39:16.720Z,23.97
2023-04-08T12:42:20.784Z,21.57
2023-04-08T12:45:23.421Z,26.03
2023-04-08T12:48:26.398Z,23.83
2023-04-08T12:51:29.416Z,26.23
2023-04-08T12:54:32.711Z,28.93
2023-04-08T12:57:36.676Z,30.47
2023-04-08T13:00:40.147Z,26.00
2023-04-08T13:03:44.965Z,27.83
2023-04-08T13:06:49.231Z,23.90
2023-04-08T13:35:20.787Z,46.40
2023-04-08T13:38:23.400Z,28.77
2023-04-08T13:41:28.006Z,27.47
2023-04-08T13:44:30.645Z,61.03
2023-04-08T13:47:34.240Z,52.00
2023-04-08T13:50:40.314Z,26.27
2023-04-08T13:53:42.893Z,28.50
2023-04-08T13:56:45.732Z,32.07
2023-04-08T13:59:48.324Z,28.10
2023-04-08T14:02:51.481Z,23.77
2023-04-08T14:05:55.560Z,22.83
2023-04-08T14:08:58.130Z,24.90
2023-04-08T14:12:00.754Z,28.57
2023-04-08T14:15:03.737Z,25.17
2023-04-08T14:18:08.636Z,25.83
2023-04-08T14:21:15.652Z,29.40
2023-04-08T14:24:18.367Z,33.73
2023-04-08T14:27:21.163Z,32.83
2023-04-08T14:30:23.855Z,27.93
2023-04-08T14:33:27.127Z,37.67
2023-04-08T14:36:31.391Z,33.57
2023-04-08T14:39:34.027Z,29.87
2023-04-08T14:42:36.629Z,36.77
2023-04-08T14:45:39.207Z,30.03
2023-04-08T14:48:41.816Z,31.00
2023-04-08T14:51:45.750Z,28.47
2023-04-08T14:54:48.322Z,26.30
2023-04-08T14:57:50.937Z,26.43
2023-04-08T15:00:53.601Z,33.80
2023-04-08T15:03:56.259Z,32.83
2023-04-08T15:07:00.408Z,49.63
2023-04-08T15:10:03.152Z,33.87
2023-04-08T15:13:05.821Z,35.60
2023-04-08T15:16:08.555Z,37.43
2023-04-08T15:19:11.609Z,44.97
2023-04-08T15:22:15.598Z,37.70
2023-04-08T15:25:18.346Z,32.63
2023-04-08T15:28:21.138Z,34.17
2023-04-08T15:31:23.788Z,33.73
2023-04-08T15:34:27.057Z,31.40
2023-04-08T15:37:30.982Z,30.83
2023-04-08T15:40:34.466Z,31.43
2023-04-08T15:43:37.080Z,32.13
2023-04-08T15:46:39.758Z,34.80
2023-04-08T15:49:42.524Z,29.27
2023-04-08T15:52:46.535Z,32.00
2023-04-08T15:55:50.162Z,31.47
2023-04-08T15:58:53.264Z,30.80
2023-04-08T16:01:56.072Z,32.33
2023-04-08T16:04:58.710Z,30.40
2023-04-08T16:08:02.665Z,33.90
2023-04-08T16:11:06.975Z,31.13
2023-04-08T16:14:09.591Z,35.33
2023-04-08T16:17:12.156Z,32.53
2023-04-08T16:20:14.937Z,30.77
2023-04-08T16:23:18.899Z,36.13
2023-04-08T16:26:22.256Z,30.20
2023-04-08T16:29:25.124Z,33.77
2023-04-08T16:32:27.861Z,31.13
2023-04-08T16:35:30.458Z,29.50
2023-04-08T16:38:35.434Z,28.27
2023-04-08T16:41:39.317Z,59.20
2023-04-08T16:44:41.987Z,28.90
2023-04-08T16:47:45.932Z,38.07
2023-04-08T16:50:48.724Z,30.50
2023-04-08T16:53:53.159Z,25.57
2023-04-08T16:56:56.940Z,29.40
2023-04-08T16:59:59.531Z,26.27
2023-04-08T17:03:02.340Z,27.23
2023-04-08T17:06:08.901Z,30.13
2023-04-08T17:09:13.012Z,34.23
2023-04-08T17:12:15.831Z,27.07
2023-04-08T17:15:18.512Z,26.40
2023-04-08T17:18:21.080Z,28.07
2023-04-08T17:21:23.714Z,37.80
2023-04-08T17:24:27.689Z,31.63
2023-04-08T17:27:30.317Z,31.67
2023-04-08T17:30:32.930Z,33.50
2023-04-08T17:33:35.536Z,32.87
2023-04-08T17:36:38.112Z,33.00
2023-04-08T17:39:42.062Z,37.90
2023-04-08T17:42:44.685Z,61.47
2023-04-08T17:45:49.959Z,46.57
2023-04-08T17:48:55.350Z,38.37
2023-04-08T17:51:57.923Z,38.50
2023-04-08T17:55:02.439Z,40.10
2023-04-08T17:58:05.298Z,42.97
2023-04-08T18:01:07.948Z,40.37
2023-04-08T18:04:12.224Z,41.17
2023-04-08T18:07:15.289Z,42.80
2023-04-08T18:10:19.429Z,47.10
2023-04-08T18:13:22.045Z,50.37
2023-04-08T18:16:24.656Z,50.40
2023-04-08T18:19:27.276Z,53.40
2023-04-08T18:22:29.838Z,49.47
2023-04-08T18:25:34.420Z,56.90
2023-04-08T18:28:37.094Z,56.03
2023-04-08T18:31:39.702Z,55.43
2023-04-08T18:34:42.309Z,58.97
2023-04-08T18:37:44.899Z,55.97
2023-04-08T18:40:48.839Z,59.67
2023-04-08T18:43:51.867Z,61.00
2023-04-08T18:46:54.687Z,57.13
2023-04-08T18:49:57.592Z,53.90
2023-04-08T18:53:00.212Z,53.90
2023-04-08T18:56:04.704Z,51.43
2023-04-08T18:59:07.382Z,53.87
2023-04-08T19:02:10.095Z,48.77
2023-04-08T19:05:12.792Z,53.77
2023-04-08T19:08:15.413Z,49.23
2023-04-08T19:11:19.500Z,48.73
2023-04-08T19:14:22.080Z,46.40
2023-04-08T19:17:24.688Z,47.27
2023-04-08T19:20:28.440Z,53.90
2023-04-08T19:23:32.035Z,52.73
2023-04-08T19:26:36.316Z,60.03
2023-04-08T19:29:38.893Z,57.73
2023-04-08T19:32:43.025Z,61.93
2023-04-08T19:35:45.723Z,62.37
2023-04-08T19:38:48.298Z,69.70
2023-04-08T19:41:52.328Z,68.60
2023-04-08T19:44:55.229Z,69.70
2023-04-08T19:47:58.007Z,77.87
2023-04-08T19:51:00.831Z,74.20
2023-04-08T19:54:03.439Z,71.00
2023-04-08T19:57:11.548Z,71.87
2023-04-08T20:00:14.465Z,77.80
2023-04-08T20:03:17.475Z,77.10
2023-04-08T20:06:20.914Z,70.40
2023-04-08T20:09:23.578Z,75.47
2023-04-08T20:12:27.546Z,68.33
2023-04-08T20:15:30.236Z,75.90
2023-04-08T20:18:33.297Z,76.10
2023-04-08T20:21:35.894Z,71.93
2023-04-08T20:24:38.454Z,76.20
2023-04-08T20:27:42.887Z,78.50
2023-04-08T20:30:45.638Z,76.70
2023-04-08T20:33:48.223Z,75.13
2023-04-08T20:36:50.915Z,72.17
2023-04-08T20:39:54.008Z,74.53
2023-04-08T20:42:57.999Z,75.67
2023-04-08T20:46:00.989Z,74.03
2023-04-08T20:49:04.148Z,85.20
2023-04-08T20:52:06.968Z,78.00
2023-04-08T20:55:10.429Z,78.33
2023-04-08T20:58:14.365Z,75.00
2023-04-08T21:01:17.006Z,73.10
2023-04-08T21:04:19.606Z,66.57
2023-04-08T21:07:22.161Z,71.03
2023-04-08T21:10:24.931Z,71.67
2023-04-08T21:13:28.849Z,69.73
2023-04-08T21:16:31.462Z,73.13
2023-04-08T21:19:34.107Z,74.00
2023-04-08T21:22:36.672Z,72.07
2023-04-08T21:25:39.331Z,75.17
2023-04-08T21:28:43.930Z,71.93
2023-04-08T21:31:46.703Z,73.73
2023-04-08T21:34:49.344Z,71.07
2023-04-08T21:37:52.022Z,74.07
2023-04-08T21:40:54.588Z,73.27
2023-04-08T21:43:59.187Z,67.57
2023-04-08T21:47:02.165Z,70.10
2023-04-08T21:50:05.547Z,75.57
2023-04-08T21:53:08.372Z,66.73
2023-04-08T21:56:11.218Z,71.93
2023-04-08T21:59:15.219Z,68.63
2023-04-08T22:02:17.869Z,72.57
2023-04-08T22:05:20.584Z,69.50
2023-04-08T22:08:23.194Z,76.47
2023-04-08T22:11:25.848Z,64.10
2023-04-08T22:14:29.886Z,65.13
2023-04-08T22:17:32.734Z,65.53
2023-04-08T22:20:36.456Z,66.77
2023-04-08T22:23:39.079Z,70.83
2023-04-08T22:26:41.709Z,66.93
2023-04-08T22:29:45.833Z,60.30
2023-04-08T22:32:48.464Z,67.00
2023-04-08T22:35:51.299Z,69.40
2023-04-08T22:38:54.162Z,59.43
2023-04-08T22:41:57.418Z,65.17
2023-04-08T22:45:01.824Z,66.13
2023-04-08T22:48:04.813Z,67.57
2023-04-08T22:51:07.419Z,67.77
2023-04-08T22:54:10.231Z,65.40
2023-04-08T22:57:12.801Z,70.93
2023-04-08T23:00:16.945Z,66.37
2023-04-08T23:03:19.566Z,64.97
2023-04-08T23:06:22.200Z,73.33
2023-04-08T23:09:26.623Z,65.97
2023-04-08T23:12:29.202Z,75.07
2023-04-08T23:15:33.176Z,72.10
2023-04-08T23:18:35.854Z,68.50
2023-04-08T23:21:38.460Z,71.53
2023-04-08T23:24:41.044Z,74.67
2023-04-08T23:27:43.634Z,72.20
2023-04-08T23:30:47.727Z,79.17
2023-04-08T23:33:50.910Z,70.50
2023-04-08T23:36:53.507Z,67.83
2023-04-08T23:39:56.352Z,81.30
2023-04-08T23:42:59.066Z,77.53
2023-04-08T23:46:03.214Z,75.53
2023-04-08T23:49:05.890Z,74.40
2023-04-08T23:52:08.475Z,80.20
2023-04-08T23:55:11.460Z,78.87
2023-04-08T23:58:14.257Z,72.97
